Valparaiso, IN (46385)

2:45 PM CDT on August 24, 2016 (GMT -0500)
Valpo Hydraulics | | Change Station

Elev 732 ft 41.46 °N, 87.11 °W | Updated 14 minutes ago

Mostly Cloudy
Mostly Cloudy
80.4 °F
Feels Like 85 °F
N
4.7
Wind Variable Wind from SSE

Today
High -- | Low -- °F
--% Chance of Precip.
Yesterday
High -- | Low -- °F
Precip. -- in
Pressure 29.96 in
Visibility 10.0 miles
Clouds Mostly Cloudy 1000 ft
Heat Index 85 °F
Dew Point 72 °F
Humidity 77%
Rainfall 0.27 in
Snow Depth Not available.
6:07 AM 7:33 PM
Waning Gibbous, 54% visible
METAR KVPZ 241856Z AUTO 19012G18KT 10SM BKN010 26/23 A2997 RMK AO2 SLP143 T02560228
Pressure 29.96 in
Visibility 10.0 miles
Clouds Mostly Cloudy 1000 ft
Heat Index 85 °F
Dew Point 72 °F
Humidity 77%
Rainfall 0.27 in
Snow Depth Not available.
6:07 AM 7:33 PM
Waning Gibbous, 54% visible
METAR KVPZ 241856Z AUTO 19012G18KT 10SM BKN010 26/23 A2997 RMK AO2 SLP143 T02560228

10-Day Weather Forecast

Almanac

Astronomy

Aug. 24, 2016 Rise Set
Actual Time
Civil Twilight
Nautical Twilight
Astronomical Twilight
Moon
Length of Visible Light
Length of Day
Tomorrow will be .
, % of the Moon is Illuminated

Today's Extremes

State Highs State Lows

Community

WunderPhotos

Upload Photos

1,934,690 photos uploaded!

WunderBlog® & News

Nearby

Air Quality

  Air Quality AQ Index Pollutant
Not available.

Snow Depth

Station Depth Elevation

Earthquake Activity

City Distance Mag. Time & Date
Minimum magnitude displayed is 2.5.

Coastal Water Temperatures

Place Temperature

Stations

Nearby Weather Stations

Station Location Temp. Windchill Dew Point Humidity Wind Precip. Elev Updated Type
                   

Watches & Warnings

There are currently no watches in effect.